Terminal Aerodrome Forecast
Issued by NWS Missoula, MT

Home | Current Version | Previous Version | Text Only | Print | Product List | Glossary On
Versions: 1 2 3 4 5 6 7 8 9 10 11 12 13 14 15 16 17 18 19
000
FTUS45 KMSO 301120
TAFBTM
TAF
KBTM 301120Z 3012/3112 17009KT P6SM BKN070
     FM302100 25010KT P6SM VCSH OVC050
     FM310000 29012KT P6SM -SHRA BKN050 OVC090
     FM310200 VRB06KT P6SM VCSH OVC090=

USA.gov is the U.S. government's official web portal to all federal, state and local government web resources and services.